createdAt,value
2018-09-14T00:00:40.674Z,100992.73
2018-09-14T00:03:09.685Z,100987.45
2018-09-14T00:05:38.950Z,100989.69
2018-09-14T00:08:07.900Z,100991.36
2018-09-14T00:10:37.140Z,100984.60
2018-09-14T00:13:06.125Z,100982.76
2018-09-14T00:15:35.299Z,100986.70
2018-09-14T00:18:04.428Z,100985.48
2018-09-14T00:20:33.451Z,100982.33
2018-09-14T00:23:02.392Z,100984.62
2018-09-14T00:25:31.460Z,100978.02
2018-09-14T00:28:00.961Z,100981.77
2018-09-14T00:30:29.923Z,100976.36
2018-09-14T00:32:59.141Z,100976.67
2018-09-14T00:35:28.521Z,100981.39
2018-09-14T00:37:57.937Z,100978.04
2018-09-14T00:40:26.879Z,100983.20
2018-09-14T00:42:56.012Z,100972.02
2018-09-14T00:45:25.264Z,100972.91
2018-09-14T00:47:54.244Z,100971.78
2018-09-14T00:50:23.350Z,100977.88
2018-09-14T00:52:52.341Z,100974.89
2018-09-14T00:55:21.530Z,100978.14
2018-09-14T00:57:51.160Z,100972.05
2018-09-14T01:00:20.215Z,100972.61
2018-09-14T01:02:49.343Z,100968.74
2018-09-14T01:05:18.414Z,100971.58
2018-09-14T01:07:47.380Z,100971.90
2018-09-14T01:10:16.375Z,100977.23
2018-09-14T01:12:45.391Z,100975.43
2018-09-14T01:15:14.290Z,100984.87
2018-09-14T01:17:43.360Z,100982.29
2018-09-14T01:20:12.446Z,100977.41
2018-09-14T01:22:41.735Z,100981.78
2018-09-14T01:25:10.904Z,100979.06
2018-09-14T01:27:40.030Z,100987.05
2018-09-14T01:30:09.382Z,100983.02
2018-09-14T01:32:38.794Z,100978.58
2018-09-14T01:35:13.013Z,100985.87
2018-09-14T01:37:42.300Z,100983.16
2018-09-14T01:40:11.636Z,100989.95
2018-09-14T01:42:40.536Z,100991.64
2018-09-14T01:45:09.885Z,100988.55
2018-09-14T01:47:39.070Z,100988.83
2018-09-14T01:50:08.369Z,100984.89
2018-09-14T01:52:37.452Z,100991.59
2018-09-14T01:55:07.032Z,100992.75
2018-09-14T01:57:36.321Z,100997.34
2018-09-14T02:00:06.114Z,100998.55
2018-09-14T02:02:35.337Z,100989.56
2018-09-14T02:05:04.300Z,100994.99
2018-09-14T02:07:33.324Z,100989.55
2018-09-14T02:10:02.260Z,100989.58
2018-09-14T02:12:31.298Z,100996.16
2018-09-14T02:15:00.235Z,101000.13
2018-09-14T02:17:29.352Z,100999.95
2018-09-14T02:19:58.433Z,101005.47
2018-09-14T02:22:27.563Z,101012.56
2018-09-14T02:24:56.523Z,101010.25
2018-09-14T02:27:25.541Z,101008.81
2018-09-14T02:29:54.504Z,101011.70
2018-09-14T02:32:23.493Z,101011.25
2018-09-14T02:34:52.588Z,101007.80
2018-09-14T02:37:21.781Z,101003.66
2018-09-14T02:39:50.912Z,101002.54
2018-09-14T02:42:19.970Z,101000.39
2018-09-14T02:44:49.140Z,101002.38
2018-09-14T02:47:18.124Z,101000.69
2018-09-14T02:49:47.162Z,100999.48
2018-09-14T02:52:16.345Z,101000.27
2018-09-14T02:54:45.772Z,100997.05
2018-09-14T02:57:15.090Z,100993.81
2018-09-14T02:59:44.348Z,100987.47
2018-09-14T03:02:13.740Z,100986.20
2018-09-14T03:04:42.738Z,100979.59
2018-09-14T03:07:11.921Z,100980.30
2018-09-14T03:09:41.228Z,100971.77
2018-09-14T03:12:10.387Z,100975.13
2018-09-14T03:14:39.603Z,100965.48
2018-09-14T03:17:08.736Z,100964.42
2018-09-14T03:19:37.772Z,100961.33
2018-09-14T03:22:06.983Z,100962.39
2018-09-14T03:24:36.179Z,100958.16
2018-09-14T03:27:05.663Z,100958.72
2018-09-14T03:29:34.720Z,100954.12
2018-09-14T03:32:04.037Z,100955.20
2018-09-14T03:34:33.343Z,100958.15
2018-09-14T03:37:02.681Z,100957.05
2018-09-14T03:39:32.016Z,100950.25
2018-09-14T03:42:01.444Z,100961.60
2018-09-14T03:44:30.713Z,100953.94
2018-09-14T03:46:59.855Z,100958.25
2018-09-14T03:49:29.156Z,100965.32
2018-09-14T03:51:58.465Z,100961.52
2018-09-14T03:54:27.484Z,100958.92
2018-09-14T03:56:56.589Z,100961.12
2018-09-14T03:59:25.546Z,100957.11
2018-09-14T04:01:54.676Z,100958.64
2018-09-14T04:04:24.216Z,100968.17
2018-09-14T04:06:53.667Z,100965.21
2018-09-14T04:09:22.858Z,100965.70
2018-09-14T04:11:52.145Z,100968.08
2018-09-14T04:14:21.387Z,100959.56
2018-09-14T04:16:50.775Z,100963.34
2018-09-14T04:19:20.154Z,100968.62
2018-09-14T04:21:49.428Z,100968.85
2018-09-14T04:24:18.802Z,100971.28
2018-09-14T04:26:47.868Z,100973.23
2018-09-14T04:29:17.193Z,100979.92
2018-09-14T04:31:46.431Z,100981.53
2018-09-14T04:34:15.452Z,100979.27
2018-09-14T04:36:44.724Z,100987.45
2018-09-14T04:39:13.661Z,100992.78
2018-09-14T04:41:42.564Z,100996.53
2018-09-14T04:44:11.774Z,101001.33
2018-09-14T04:46:40.720Z,101004.32
2018-09-14T04:49:09.906Z,100999.45
2018-09-14T04:51:38.903Z,101001.68
2018-09-14T04:54:07.945Z,100996.56
2018-09-14T04:56:36.998Z,100993.02
2018-09-14T04:59:06.095Z,100986.39
2018-09-14T05:01:35.134Z,100987.23
2018-09-14T05:04:04.281Z,100986.01
2018-09-14T05:06:33.275Z,100985.19
2018-09-14T05:09:02.288Z,100987.15
2018-09-14T05:11:31.296Z,100987.65
2018-09-14T05:14:00.397Z,100997.95
2018-09-14T05:16:29.376Z,100994.09
2018-09-14T05:18:58.415Z,101002.47
2018-09-14T05:21:27.551Z,100995.76
2018-09-14T05:23:56.753Z,100995.63
2018-09-14T05:26:26.012Z,100993.88
2018-09-14T05:28:55.348Z,100991.66
2018-09-14T05:31:24.509Z,100992.92
2018-09-14T05:33:53.576Z,100990.02
2018-09-14T05:36:22.571Z,100983.02
2018-09-14T05:38:51.491Z,100981.34
2018-09-14T05:41:20.814Z,100976.35
2018-09-14T05:43:50.065Z,100983.19
2018-09-14T05:46:19.077Z,100986.85
2018-09-14T05:48:48.004Z,100980.38
2018-09-14T05:51:17.523Z,100980.73
2018-09-14T05:53:46.500Z,100981.08
2018-09-14T05:56:15.568Z,100979.66
2018-09-14T05:58:44.863Z,100977.41
2018-09-14T06:01:14.058Z,100978.22
2018-09-14T06:03:43.196Z,100981.58
2018-09-14T06:06:12.188Z,100982.41
2018-09-14T06:08:41.079Z,100980.20
2018-09-14T06:11:10.199Z,100978.70
2018-09-14T06:13:39.127Z,100986.59
2018-09-14T06:16:08.511Z,100979.50
2018-09-14T06:18:37.881Z,100982.64
2018-09-14T06:21:06.892Z,100989.22
2018-09-14T06:23:35.831Z,101000.95
2018-09-14T06:26:04.817Z,100994.38
2018-09-14T06:28:33.856Z,100967.38
2018-09-14T06:31:02.836Z,100975.53
2018-09-14T06:33:32.109Z,100984.14
2018-09-14T06:36:01.031Z,100980.16
2018-09-14T06:38:30.164Z,100987.36
2018-09-14T06:40:59.566Z,100979.32
2018-09-14T06:43:28.491Z,100989.81
2018-09-14T06:45:57.404Z,100986.22
2018-09-14T06:48:26.303Z,100988.54
2018-09-14T06:50:55.276Z,100994.77
2018-09-14T06:53:24.311Z,100991.03
2018-09-14T06:55:53.337Z,100988.44
2018-09-14T06:58:22.336Z,100992.48
2018-09-14T07:00:51.212Z,100995.89
2018-09-14T07:03:20.987Z,101004.40
2018-09-14T07:05:49.859Z,101007.44
2018-09-14T07:08:19.836Z,101013.55
2018-09-14T07:10:48.931Z,101018.50
2018-09-14T07:13:18.511Z,101011.41
2018-09-14T07:15:47.861Z,101014.98
2018-09-14T07:18:17.644Z,101015.91
2018-09-14T07:20:47.184Z,101014.95
2018-09-14T07:23:16.375Z,101021.42
2018-09-14T07:25:45.840Z,101023.70
2018-09-14T07:28:14.769Z,101025.83
2018-09-14T07:30:43.858Z,101021.57
2018-09-14T07:33:12.941Z,101016.40
2018-09-14T07:35:41.761Z,101022.53
2018-09-14T07:38:10.826Z,101021.64
2018-09-14T07:40:39.815Z,101021.92
2018-09-14T07:43:08.864Z,101026.45
2018-09-14T07:45:37.883Z,101026.45
2018-09-14T07:48:06.930Z,101026.06
2018-09-14T07:50:36.316Z,101038.28
2018-09-14T07:53:05.616Z,101026.68
2018-09-14T07:55:34.570Z,101028.36
2018-09-14T07:58:03.508Z,101033.75
2018-09-14T08:00:32.784Z,101029.61
2018-09-14T08:03:01.675Z,101024.06
2018-09-14T08:05:30.724Z,101026.70
2018-09-14T08:07:59.892Z,101022.20
2018-09-14T08:10:28.765Z,101022.49
2018-09-14T08:12:57.945Z,101024.02
2018-09-14T08:15:26.988Z,101023.17
2018-09-14T08:17:56.032Z,101015.47
2018-09-14T08:20:25.125Z,101016.09
2018-09-14T08:22:54.043Z,101012.92
2018-09-14T08:25:23.093Z,101014.02
2018-09-14T08:27:52.312Z,101006.78
2018-09-14T08:30:21.472Z,100995.22
2018-09-14T08:32:50.344Z,101006.31
2018-09-14T08:35:19.433Z,101003.19
2018-09-14T08:37:48.675Z,101003.13
2018-09-14T08:40:17.888Z,100999.77
2018-09-14T08:42:46.880Z,101023.02
2018-09-14T08:45:15.848Z,101007.08
2018-09-14T08:47:44.799Z,101010.09
2018-09-14T08:50:13.819Z,101016.39
2018-09-14T08:52:42.708Z,101010.13
2018-09-14T08:55:11.811Z,101008.58
2018-09-14T08:57:41.316Z,101013.14
2018-09-14T09:00:10.844Z,101014.66
2018-09-14T09:02:40.244Z,101013.87
2018-09-14T09:05:09.492Z,101019.84
2018-09-14T09:07:38.499Z,101016.66
2018-09-14T09:10:07.490Z,101014.27
2018-09-14T09:12:36.775Z,101008.55
2018-09-14T09:15:05.955Z,101008.80
2018-09-14T09:17:35.134Z,101012.54
2018-09-14T09:20:04.281Z,101021.33
2018-09-14T09:22:33.471Z,101004.35
2018-09-14T09:25:02.702Z,101002.15
2018-09-14T09:27:31.636Z,101007.83
2018-09-14T09:30:00.623Z,101001.43
2018-09-14T09:32:29.548Z,101016.91
2018-09-14T09:34:58.860Z,100997.95
2018-09-14T09:37:27.746Z,101006.70
2018-09-14T09:39:57.172Z,101011.14
2018-09-14T09:42:26.053Z,100998.95
2018-09-14T09:44:55.060Z,100990.02
2018-09-14T09:47:24.077Z,100989.39
2018-09-14T09:49:53.299Z,100989.70
2018-09-14T09:52:22.316Z,100990.00
2018-09-14T09:54:51.864Z,101007.05
2018-09-14T09:57:21.282Z,101007.16
2018-09-14T09:59:50.351Z,100999.34
2018-09-14T10:02:24.724Z,100985.45
2018-09-14T10:04:59.128Z,100981.03
2018-09-14T10:07:28.738Z,100992.34
2018-09-14T10:09:57.885Z,101008.25
2018-09-14T10:12:26.942Z,100989.55
2018-09-14T10:14:55.980Z,100981.53
2018-09-14T10:17:25.096Z,100985.86
2018-09-14T10:19:54.159Z,100992.98
2018-09-14T10:22:23.320Z,100980.28
2018-09-14T10:24:52.389Z,100998.23
2018-09-14T10:27:21.283Z,100984.95
2018-09-14T10:29:50.315Z,100985.17
2018-09-14T10:32:19.485Z,100977.39
2018-09-14T10:34:48.488Z,100971.66
2018-09-14T10:37:17.469Z,100981.57
2018-09-14T10:39:46.568Z,100978.50
2018-09-14T10:42:15.523Z,100967.58
2018-09-14T10:44:44.485Z,100963.41
2018-09-14T10:47:13.700Z,100968.05
2018-09-14T10:49:43.464Z,100966.69
2018-09-14T10:52:12.854Z,100959.57
2018-09-14T10:54:41.811Z,100956.72
2018-09-14T10:57:10.667Z,100963.48
2018-09-14T10:59:39.596Z,100960.12
2018-09-14T11:02:08.616Z,100965.33
2018-09-14T11:04:37.436Z,100958.41
2018-09-14T11:07:06.541Z,100955.81
2018-09-14T11:09:35.606Z,100959.52
2018-09-14T11:12:04.805Z,100954.30
2018-09-14T11:14:33.967Z,100943.17
2018-09-14T11:17:03.164Z,100945.56
2018-09-14T11:19:32.212Z,100947.36
2018-09-14T11:22:01.268Z,100949.11
2018-09-14T11:24:30.280Z,100943.55
2018-09-14T11:26:59.477Z,100944.88
2018-09-14T11:29:28.378Z,100936.95
2018-09-14T11:31:57.550Z,100940.00
2018-09-14T11:34:27.121Z,100937.94
2018-09-14T11:36:55.999Z,100934.92
2018-09-14T11:39:24.954Z,100931.79
2018-09-14T11:41:53.984Z,100940.45
2018-09-14T11:44:23.293Z,100929.45
2018-09-14T11:46:52.401Z,100940.35
2018-09-14T11:49:21.479Z,100924.70
2018-09-14T11:51:50.541Z,100927.53
2018-09-14T11:54:19.477Z,100925.93
2018-09-14T11:56:48.672Z,100922.25
2018-09-14T11:59:17.899Z,100923.94
2018-09-14T12:01:46.922Z,100927.97
2018-09-14T12:04:15.993Z,100925.69
2018-09-14T12:06:44.988Z,100932.03
2018-09-14T12:09:13.864Z,100928.69
2018-09-14T12:11:42.954Z,100930.66
2018-09-14T12:14:12.355Z,100932.48
2018-09-14T12:16:41.409Z,100932.09
2018-09-14T12:19:10.496Z,100929.44
2018-09-14T12:21:39.379Z,100937.81
2018-09-14T12:24:08.380Z,100932.34
2018-09-14T12:26:37.492Z,100925.25
2018-09-14T12:29:06.876Z,100923.66
2018-09-14T12:31:35.781Z,100922.11
2018-09-14T12:34:05.116Z,100921.69
2018-09-14T12:36:34.185Z,100914.48
2018-09-14T12:39:03.351Z,100908.50
2018-09-14T12:41:32.537Z,100909.58
2018-09-14T12:44:01.391Z,100909.89
2018-09-14T12:46:30.345Z,100902.64
2018-09-14T12:48:59.664Z,100904.26
2018-09-14T12:51:29.900Z,100904.97
2018-09-14T12:53:58.735Z,100898.95
2018-09-14T12:56:27.924Z,100903.08
2018-09-14T12:58:56.824Z,100905.25
2018-09-14T13:01:26.524Z,100907.91
2018-09-14T13:03:55.472Z,100910.75
2018-09-14T13:06:25.107Z,100907.00
2018-09-14T13:08:54.059Z,100901.53
2018-09-14T13:11:22.971Z,100895.58
2018-09-14T13:13:52.301Z,100894.97
2018-09-14T13:16:21.255Z,100890.05
2018-09-14T13:18:50.428Z,100889.13
2018-09-14T13:21:19.721Z,100887.11
2018-09-14T13:23:48.736Z,100888.89
2018-09-14T13:26:17.704Z,100894.14
2018-09-14T13:28:47.029Z,100887.47
2018-09-14T13:31:15.859Z,100881.60
2018-09-14T13:33:44.918Z,100880.78
2018-09-14T13:36:13.891Z,100888.55
2018-09-14T13:38:42.831Z,100894.85
2018-09-14T13:41:11.816Z,100885.88
2018-09-14T13:43:40.707Z,100889.23
2018-09-14T13:46:09.706Z,100894.70
2018-09-14T13:48:38.560Z,100884.66
2018-09-14T13:51:07.043Z,100892.98
2018-09-14T13:53:36.381Z,100886.28
2018-09-14T13:56:05.309Z,100885.16
2018-09-14T13:58:34.662Z,100891.23
2018-09-14T14:01:03.795Z,100889.39
2018-09-14T14:03:32.628Z,100892.30
2018-09-14T14:06:01.579Z,100882.10
2018-09-14T14:08:31.076Z,100890.94
2018-09-14T14:11:00.065Z,100898.95
2018-09-14T14:13:29.082Z,100895.20
2018-09-14T14:15:58.076Z,100897.69
2018-09-14T14:18:27.288Z,100906.52
2018-09-14T14:20:56.244Z,100904.22
2018-09-14T14:23:25.275Z,100918.09
2018-09-14T14:25:54.584Z,100928.92
2018-09-14T14:28:23.777Z,100935.30
2018-09-14T14:30:53.056Z,100955.80
2018-09-14T14:33:22.063Z,100962.55
2018-09-14T14:35:51.036Z,100964.28
2018-09-14T14:38:20.456Z,100990.88
2018-09-14T14:40:49.495Z,100986.98
2018-09-14T14:43:18.767Z,100990.78
2018-09-14T14:45:48.023Z,100993.73
2018-09-14T14:48:17.351Z,100994.91
2018-09-14T14:50:46.512Z,101000.98
2018-09-14T14:53:15.960Z,101005.16
2018-09-14T14:55:44.883Z,101018.73
2018-09-14T14:58:13.871Z,101014.48
2018-09-14T15:00:42.888Z,101017.98
2018-09-14T15:03:11.952Z,101024.91
2018-09-14T15:05:40.859Z,101018.20
2018-09-14T15:08:09.683Z,101022.09
2018-09-14T15:10:38.743Z,101021.10
2018-09-14T15:13:07.758Z,101022.77
2018-09-14T15:15:37.109Z,101027.75
2018-09-14T15:18:06.363Z,101030.95
2018-09-14T15:20:35.321Z,101029.92
2018-09-14T15:23:04.511Z,101035.28
2018-09-14T15:25:33.397Z,101029.94
2018-09-14T15:28:02.376Z,101033.61
2018-09-14T15:30:31.440Z,101039.03
2018-09-14T15:33:00.412Z,101046.16
2018-09-14T15:35:29.415Z,101046.86
2018-09-14T15:37:58.375Z,101051.72
2018-09-14T15:40:27.509Z,101052.39
2018-09-14T15:42:56.580Z,101055.05
2018-09-14T15:45:25.623Z,101057.00
2018-09-14T15:47:54.580Z,101050.09
2018-09-14T15:50:23.605Z,101063.40
2018-09-14T15:52:52.459Z,101035.52
2018-09-14T15:55:21.503Z,101061.55
2018-09-14T15:57:50.543Z,101064.98
2018-09-14T16:00:22.077Z,101061.32
2018-09-14T16:02:52.463Z,101061.98
2018-09-14T16:05:21.539Z,101056.86
2018-09-14T16:07:50.636Z,101061.94
2018-09-14T16:10:19.680Z,101061.44
2018-09-14T16:12:48.528Z,101065.30
2018-09-14T16:15:17.447Z,101066.58
2018-09-14T16:17:46.537Z,101062.23
2018-09-14T16:20:15.528Z,101067.06
2018-09-14T16:22:44.505Z,101067.72
2018-09-14T16:25:13.419Z,101074.89
2018-09-14T16:27:42.741Z,101068.56
2018-09-14T16:30:12.017Z,101073.38
2018-09-14T16:32:40.907Z,101075.73
2018-09-14T16:35:10.182Z,101079.84
2018-09-14T16:37:39.400Z,101081.69
2018-09-14T16:40:08.660Z,101083.47
2018-09-14T16:42:37.487Z,101084.98
2018-09-14T16:45:06.608Z,101086.16
2018-09-14T16:47:35.688Z,101095.85
2018-09-14T16:50:04.596Z,101095.39
2018-09-14T16:52:33.517Z,101094.73
2018-09-14T16:55:02.534Z,101095.61
2018-09-14T16:57:31.499Z,101095.00
2018-09-14T17:00:00.336Z,101105.36
2018-09-14T17:02:29.399Z,101109.86
2018-09-14T17:04:58.408Z,101111.34
2018-09-14T17:07:27.258Z,101116.38
2018-09-14T17:09:56.337Z,101118.52
2018-09-14T17:12:25.236Z,101118.44
2018-09-14T17:14:54.250Z,101120.23
2018-09-14T17:17:23.132Z,101122.81
2018-09-14T17:19:52.306Z,101123.62
2018-09-14T17:22:21.560Z,101125.88
2018-09-14T17:24:50.525Z,101130.12
2018-09-14T17:27:19.423Z,101130.27
2018-09-14T17:29:48.569Z,101129.23
2018-09-14T17:32:17.576Z,101134.30
2018-09-14T17:34:46.641Z,101145.28
2018-09-14T17:37:15.612Z,101144.87
2018-09-14T17:39:44.641Z,101140.98
2018-09-14T17:42:13.636Z,101140.41
2018-09-14T17:44:42.554Z,101143.14
2018-09-14T17:47:11.504Z,101142.59
2018-09-14T17:49:40.594Z,101151.44
2018-09-14T17:52:10.048Z,101148.34
2018-09-14T17:54:39.052Z,101138.89
2018-09-14T17:57:08.148Z,101147.84
2018-09-14T17:59:37.096Z,101146.48
2018-09-14T18:02:06.078Z,101150.81
2018-09-14T18:04:35.132Z,101153.91
2018-09-14T18:07:04.016Z,101156.41
2018-09-14T18:09:33.052Z,101151.58
2018-09-14T18:12:01.897Z,101150.19
2018-09-14T18:14:30.787Z,101141.24
2018-09-14T18:17:01.046Z,101134.22
2018-09-14T18:19:29.969Z,101143.36
2018-09-14T18:21:58.964Z,101134.67
2018-09-14T18:24:27.980Z,101133.67
2018-09-14T18:26:56.962Z,101133.25
2018-09-14T18:29:25.948Z,101126.93
2018-09-14T18:31:55.207Z,101120.16
2018-09-14T18:34:24.116Z,101120.70
2018-09-14T18:36:53.180Z,101113.42
2018-09-14T18:39:22.060Z,101109.82
2018-09-14T18:41:50.959Z,101107.14
2018-09-14T18:44:19.839Z,101110.98
2018-09-14T18:46:48.690Z,101114.89
2018-09-14T18:49:17.727Z,101117.64
2018-09-14T18:51:46.712Z,101127.66
2018-09-14T18:54:15.811Z,101122.31
2018-09-14T18:56:44.892Z,101120.43
2018-09-14T18:59:13.747Z,101119.45
2018-09-14T19:01:43.192Z,101121.01
2018-09-14T19:04:12.124Z,101121.36
2018-09-14T19:06:41.281Z,101127.31
2018-09-14T19:09:11.934Z,101131.43
2018-09-14T19:11:41.167Z,101128.98
2018-09-14T19:14:10.483Z,101128.55
2018-09-14T19:16:39.592Z,101127.77
2018-09-14T19:19:08.597Z,101125.69
2018-09-14T19:21:37.735Z,101120.36
2018-09-14T19:24:06.959Z,101131.63
2018-09-14T19:26:36.274Z,101129.90
2018-09-14T19:29:05.109Z,101127.27
2018-09-14T19:31:34.667Z,101131.26
2018-09-14T19:34:04.012Z,101124.78
2018-09-14T19:36:33.100Z,101121.00
2018-09-14T19:39:02.500Z,101120.61
2018-09-14T19:41:31.584Z,101120.41
2018-09-14T19:44:01.144Z,101124.08
2018-09-14T19:46:30.133Z,101117.80
2018-09-14T19:48:59.744Z,101121.62
2018-09-14T19:51:28.765Z,101116.81
2018-09-14T19:53:57.798Z,101120.34
2018-09-14T19:56:26.993Z,101115.44
2018-09-14T19:58:55.839Z,101120.16
2018-09-14T20:01:24.913Z,101131.98
2018-09-14T20:03:54.180Z,101123.20
2018-09-14T20:06:23.432Z,101114.69
2018-09-14T20:08:52.892Z,101112.89
2018-09-14T20:11:22.076Z,101115.75
2018-09-14T20:13:51.402Z,101116.34
2018-09-14T20:16:20.444Z,101117.03
2018-09-14T20:18:49.740Z,101119.37
2018-09-14T20:21:18.844Z,101121.52
2018-09-14T20:23:47.782Z,101127.83
2018-09-14T20:26:17.013Z,101127.75
2018-09-14T20:28:46.175Z,101128.07
2018-09-14T20:31:15.179Z,101126.36
2018-09-14T20:33:44.519Z,101126.86
2018-09-14T20:36:13.580Z,101125.16
2018-09-14T20:38:42.554Z,101133.92
2018-09-14T20:41:11.771Z,101127.93
2018-09-14T20:43:40.656Z,101118.75
2018-09-14T20:46:10.292Z,101126.52
2018-09-14T20:48:39.641Z,101127.58
2018-09-14T20:51:09.088Z,101126.61
2018-09-14T20:53:38.568Z,101123.55
2018-09-14T20:56:08.040Z,101123.55
2018-09-14T20:58:37.240Z,101122.56
2018-09-14T21:01:06.211Z,101118.56
2018-09-14T21:03:35.328Z,101118.49
2018-09-14T21:06:04.728Z,101119.14
2018-09-14T21:08:34.105Z,101118.78
2018-09-14T21:11:03.260Z,101128.87
2018-09-14T21:13:32.456Z,101121.23
2018-09-14T21:16:01.324Z,101124.36
2018-09-14T21:18:30.240Z,101123.96
2018-09-14T21:20:59.206Z,101119.17
2018-09-14T21:23:28.554Z,101124.24
2018-09-14T21:25:57.521Z,101122.11
2018-09-14T21:28:26.504Z,101130.33
2018-09-14T21:30:55.688Z,101130.62
2018-09-14T21:33:24.884Z,101131.91
2018-09-14T21:35:54.728Z,101127.50
2018-09-14T21:38:23.683Z,101124.36
2018-09-14T21:40:52.624Z,101124.15
2018-09-14T21:43:21.841Z,101126.33
2018-09-14T21:45:51.196Z,101132.70
2018-09-14T21:48:20.157Z,101123.66
2018-09-14T21:50:49.168Z,101132.58
2018-09-14T21:53:18.375Z,101133.85
2018-09-14T21:55:47.376Z,101133.38
2018-09-14T21:58:16.321Z,101133.88
2018-09-14T22:00:50.209Z,101136.62
2018-09-14T22:03:19.088Z,101129.34
2018-09-14T22:05:48.400Z,101130.05
2018-09-14T22:08:17.372Z,101128.97
2018-09-14T22:10:46.316Z,101128.87
2018-09-14T22:13:15.223Z,101129.46
2018-09-14T22:15:44.513Z,101125.91
2018-09-14T22:18:13.692Z,101132.61
2018-09-14T22:20:43.049Z,101139.16
2018-09-14T22:23:12.061Z,101131.23
2018-09-14T22:25:41.102Z,101126.03
2018-09-14T22:28:10.959Z,101121.33
2018-09-14T22:30:40.133Z,101120.53
2018-09-14T22:33:09.227Z,101126.22
2018-09-14T22:35:38.324Z,101131.63
2018-09-14T22:38:07.752Z,101131.70
2018-09-14T22:40:36.664Z,101140.42
2018-09-14T22:43:05.763Z,101127.48
2018-09-14T22:45:34.726Z,101133.08
2018-09-14T22:48:03.684Z,101133.37
2018-09-14T22:50:32.875Z,101130.53
2018-09-14T22:53:02.215Z,101125.13
2018-09-14T22:55:31.162Z,101128.09
2018-09-14T22:58:00.260Z,101130.73
2018-09-14T23:00:34.473Z,101136.11
2018-09-14T23:03:03.732Z,101139.64
2018-09-14T23:05:32.911Z,101139.73
2018-09-14T23:08:02.096Z,101140.41
2018-09-14T23:10:31.108Z,101143.46
2018-09-14T23:13:00.063Z,101144.12
2018-09-14T23:15:29.216Z,101142.75
2018-09-14T23:17:59.193Z,101143.37
2018-09-14T23:20:28.823Z,101146.88
2018-09-14T23:22:57.952Z,101151.87
2018-09-14T23:25:27.224Z,101148.34
2018-09-14T23:27:56.456Z,101149.81
2018-09-14T23:30:25.312Z,101138.45
2018-09-14T23:32:54.346Z,101138.00
2018-09-14T23:35:23.315Z,101138.16
2018-09-14T23:37:52.255Z,101128.83
2018-09-14T23:40:21.091Z,101132.48
2018-09-14T23:42:49.923Z,101137.36
2018-09-14T23:45:19.019Z,101135.31
2018-09-14T23:47:48.104Z,101129.36
2018-09-14T23:50:16.992Z,101134.45
2018-09-14T23:52:46.265Z,101136.59
2018-09-14T23:55:15.227Z,101135.10
2018-09-14T23:57:44.547Z,101131.80
